Terminal Aerodrome Forecast
Issued by NWS

Home | Current Version | Previous Version | Text Only | Print | Product List | Glossary On
Versions: 1 2 3 4 5 6 7 8 9 10 11 12 13 14 15 16 17
000
FTUS41 KBOX 251429 AAA
TAFHYA
TAF AMD
KHYA 251429Z 2514/2612 07014KT 2SM -RA BR OVC005
     FM252000 08011KT 2SM -DZ BR OVC003
     FM252200 09007KT 2SM -DZ BR OVC003
     FM260000 VRB03KT 1SM -RA BR VV002
     FM260700 19005KT 1SM -RA BR OVC003
     FM260900 22007KT 2SM -RA BR OVC005=

USA.gov is the U.S. government's official web portal to all federal, state and local government web resources and services.